sensor_id;sensor_type;location;lat;lon;timestamp;P1;durP1;ratioP1;P2;durP2;ratioP2
48647;SDS011;34437;-33.956;151.076;2022-11-15T00:00:44;4.80;;;1.00;;
48647;SDS011;34437;-33.956;151.076;2022-11-15T00:03:07;3.17;;;1.00;;
48647;SDS011;34437;-33.956;151.076;2022-11-15T00:05:29;5.20;;;0.70;;
48647;SDS011;34437;-33.956;151.076;2022-11-15T00:07:57;2.60;;;0.73;;
48647;SDS011;34437;-33.956;151.076;2022-11-15T00:10:19;2.08;;;0.73;;
48647;SDS011;34437;-33.956;151.076;2022-11-15T00:12:42;2.53;;;0.50;;
48647;SDS011;34437;-33.956;151.076;2022-11-15T00:15:04;3.05;;;0.60;;
48647;SDS011;34437;-33.956;151.076;2022-11-15T00:17:27;2.25;;;0.40;;
48647;SDS011;34437;-33.956;151.076;2022-11-15T00:19:50;1.95;;;0.80;;
48647;SDS011;34437;-33.956;151.076;2022-11-15T00:22:13;1.55;;;0.40;;
48647;SDS011;34437;-33.956;151.076;2022-11-15T00:24:35;1.17;;;0.50;;
48647;SDS011;34437;-33.956;151.076;2022-11-15T00:26:58;1.70;;;0.70;;
48647;SDS011;34437;-33.956;151.076;2022-11-15T00:29:20;4.90;;;1.05;;
48647;SDS011;34437;-33.956;151.076;2022-11-15T00:31:43;9.65;;;0.75;;
48647;SDS011;34437;-33.956;151.076;2022-11-15T00:34:06;3.67;;;0.70;;
48647;SDS011;34437;-33.956;151.076;2022-11-15T00:36:28;3.42;;;0.63;;
48647;SDS011;34437;-33.956;151.076;2022-11-15T00:38:53;3.47;;;0.82;;
48647;SDS011;34437;-33.956;151.076;2022-11-15T00:41:16;2.60;;;0.68;;
48647;SDS011;34437;-33.956;151.076;2022-11-15T00:43:38;3.78;;;0.95;;
48647;SDS011;34437;-33.956;151.076;2022-11-15T00:46:04;3.90;;;0.90;;
48647;SDS011;34437;-33.956;151.076;2022-11-15T00:48:26;3.20;;;0.82;;
48647;SDS011;34437;-33.956;151.076;2022-11-15T00:50:49;2.23;;;0.60;;
48647;SDS011;34437;-33.956;151.076;2022-11-15T00:53:12;2.00;;;0.60;;
48647;SDS011;34437;-33.956;151.076;2022-11-15T00:55:34;3.97;;;0.85;;
48647;SDS011;34437;-33.956;151.076;2022-11-15T00:57:57;4.50;;;1.15;;
48647;SDS011;34437;-33.956;151.076;2022-11-15T01:00:19;4.00;;;0.80;;
48647;SDS011;34437;-33.956;151.076;2022-11-15T01:02:42;4.57;;;0.95;;
48647;SDS011;34437;-33.956;151.076;2022-11-15T01:05:05;4.47;;;0.88;;
48647;SDS011;34437;-33.956;151.076;2022-11-15T01:07:28;1.10;;;0.40;;
48647;SDS011;34437;-33.956;151.076;2022-11-15T01:09:50;0.85;;;0.45;;
48647;SDS011;34437;-33.956;151.076;2022-11-15T01:12:13;1.58;;;0.52;;
48647;SDS011;34437;-33.956;151.076;2022-11-15T01:14:35;2.88;;;0.63;;
48647;SDS011;34437;-33.956;151.076;2022-11-15T01:16:58;4.18;;;0.80;;
48647;SDS011;34437;-33.956;151.076;2022-11-15T01:19:20;3.33;;;0.82;;
48647;SDS011;34437;-33.956;151.076;2022-11-15T01:21:43;1.73;;;0.85;;
48647;SDS011;34437;-33.956;151.076;2022-11-15T01:24:06;1.75;;;0.80;;
48647;SDS011;34437;-33.956;151.076;2022-11-15T01:26:29;2.53;;;0.80;;
48647;SDS011;34437;-33.956;151.076;2022-11-15T01:28:51;3.97;;;0.80;;
48647;SDS011;34437;-33.956;151.076;2022-11-15T01:31:15;1.40;;;0.50;;
48647;SDS011;34437;-33.956;151.076;2022-11-15T01:33:40;10.60;;;0.60;;
48647;SDS011;34437;-33.956;151.076;2022-11-15T01:36:04;3.22;;;0.70;;
48647;SDS011;34437;-33.956;151.076;2022-11-15T01:40:49;3.95;;;0.93;;
48647;SDS011;34437;-33.956;151.076;2022-11-15T01:43:28;1.60;;;0.63;;
48647;SDS011;34437;-33.956;151.076;2022-11-15T01:45:56;5.45;;;1.30;;
48647;SDS011;34437;-33.956;151.076;2022-11-15T01:48:40;16.67;;;1.20;;
48647;SDS011;34437;-33.956;151.076;2022-11-15T01:51:04;4.95;;;0.93;;
48647;SDS011;34437;-33.956;151.076;2022-11-15T01:53:31;2.47;;;0.82;;
48647;SDS011;34437;-33.956;151.076;2022-11-15T01:55:55;2.00;;;0.73;;
48647;SDS011;34437;-33.956;151.076;2022-11-15T01:58:18;3.80;;;0.95;;
48647;SDS011;34437;-33.956;151.076;2022-11-15T02:00:41;1.02;;;0.43;;
48647;SDS011;34437;-33.956;151.076;2022-11-15T02:03:03;3.13;;;0.75;;
48647;SDS011;34437;-33.956;151.076;2022-11-15T02:05:26;1.15;;;0.57;;
48647;SDS011;34437;-33.956;151.076;2022-11-15T02:07:48;4.95;;;0.70;;
48647;SDS011;34437;-33.956;151.076;2022-11-15T02:10:13;1.77;;;0.40;;
48647;SDS011;34437;-33.956;151.076;2022-11-15T02:12:40;5.70;;;1.00;;
48647;SDS011;34437;-33.956;151.076;2022-11-15T02:15:04;2.00;;;0.55;;
48647;SDS011;34437;-33.956;151.076;2022-11-15T02:17:34;2.35;;;0.80;;
48647;SDS011;34437;-33.956;151.076;2022-11-15T02:28:16;2.58;;;1.30;;
48647;SDS011;34437;-33.956;151.076;2022-11-15T02:31:11;4.03;;;1.30;;
48647;SDS011;34437;-33.956;151.076;2022-11-15T02:33:40;3.03;;;1.10;;
48647;SDS011;34437;-33.956;151.076;2022-11-15T02:36:15;3.13;;;1.20;;
48647;SDS011;34437;-33.956;151.076;2022-11-15T02:41:54;4.47;;;1.30;;
48647;SDS011;34437;-33.956;151.076;2022-11-15T02:44:58;3.55;;;1.23;;
48647;SDS011;34437;-33.956;151.076;2022-11-15T02:47:26;5.13;;;1.48;;
48647;SDS011;34437;-33.956;151.076;2022-11-15T02:49:52;5.22;;;1.33;;
48647;SDS011;34437;-33.956;151.076;2022-11-15T02:52:19;3.53;;;0.93;;
48647;SDS011;34437;-33.956;151.076;2022-11-15T02:54:55;4.30;;;1.02;;
48647;SDS011;34437;-33.956;151.076;2022-11-15T02:57:19;4.22;;;1.17;;
48647;SDS011;34437;-33.956;151.076;2022-11-15T03:00:06;4.78;;;1.25;;
48647;SDS011;34437;-33.956;151.076;2022-11-15T03:02:56;1.27;;;0.70;;
48647;SDS011;34437;-33.956;151.076;2022-11-15T03:05:35;1.77;;;0.60;;
48647;SDS011;34437;-33.956;151.076;2022-11-15T03:08:19;2.05;;;0.52;;
48647;SDS011;34437;-33.956;151.076;2022-11-15T03:11:08;1.33;;;0.52;;
48647;SDS011;34437;-33.956;151.076;2022-11-15T03:19:12;1.05;;;0.40;;
48647;SDS011;34437;-33.956;151.076;2022-11-15T03:21:40;2.22;;;0.70;;
48647;SDS011;34437;-33.956;151.076;2022-11-15T03:24:04;1.65;;;0.52;;
48647;SDS011;34437;-33.956;151.076;2022-11-15T03:26:29;3.80;;;0.80;;
48647;SDS011;34437;-33.956;151.076;2022-11-15T03:28:55;1.92;;;0.45;;
48647;SDS011;34437;-33.956;151.076;2022-11-15T03:31:32;4.63;;;0.95;;
48647;SDS011;34437;-33.956;151.076;2022-11-15T03:34:09;0.93;;;0.57;;
48647;SDS011;34437;-33.956;151.076;2022-11-15T03:36:36;3.95;;;0.60;;
48647;SDS011;34437;-33.956;151.076;2022-11-15T03:39:01;1.25;;;0.75;;
48647;SDS011;34437;-33.956;151.076;2022-11-15T03:41:31;2.90;;;0.50;;
48647;SDS011;34437;-33.956;151.076;2022-11-15T03:49:45;4.88;;;1.05;;
48647;SDS011;34437;-33.956;151.076;2022-11-15T03:52:15;5.35;;;1.05;;
48647;SDS011;34437;-33.956;151.076;2022-11-15T03:54:58;1.35;;;0.70;;
48647;SDS011;34437;-33.956;151.076;2022-11-15T03:57:22;6.03;;;0.98;;
48647;SDS011;34437;-33.956;151.076;2022-11-15T03:59:44;1.25;;;0.52;;
48647;SDS011;34437;-33.956;151.076;2022-11-15T04:02:07;1.80;;;0.70;;
48647;SDS011;34437;-33.956;151.076;2022-11-15T04:04:30;2.47;;;0.80;;
48647;SDS011;34437;-33.956;151.076;2022-11-15T04:06:52;9.35;;;1.20;;
48647;SDS011;34437;-33.956;151.076;2022-11-15T04:09:15;2.22;;;0.73;;
48647;SDS011;34437;-33.956;151.076;2022-11-15T04:11:37;2.75;;;0.73;;
48647;SDS011;34437;-33.956;151.076;2022-11-15T04:14:00;3.08;;;0.70;;
48647;SDS011;34437;-33.956;151.076;2022-11-15T04:16:22;2.60;;;0.80;;
48647;SDS011;34437;-33.956;151.076;2022-11-15T04:18:45;2.63;;;0.57;;
48647;SDS011;34437;-33.956;151.076;2022-11-15T04:21:27;1.30;;;0.70;;
48647;SDS011;34437;-33.956;151.076;2022-11-15T04:24:08;1.27;;;0.77;;
48647;SDS011;34437;-33.956;151.076;2022-11-15T04:26:33;2.22;;;0.80;;
48647;SDS011;34437;-33.956;151.076;2022-11-15T04:28:56;12.33;;;0.90;;
48647;SDS011;34437;-33.956;151.076;2022-11-15T04:31:36;1.38;;;0.50;;
48647;SDS011;34437;-33.956;151.076;2022-11-15T04:33:59;2.13;;;0.75;;
48647;SDS011;34437;-33.956;151.076;2022-11-15T04:36:22;1.77;;;0.60;;
48647;SDS011;34437;-33.956;151.076;2022-11-15T04:39:03;3.97;;;0.70;;
48647;SDS011;34437;-33.956;151.076;2022-11-15T04:41:26;1.95;;;0.50;;
48647;SDS011;34437;-33.956;151.076;2022-11-15T04:43:49;3.95;;;1.02;;
48647;SDS011;34437;-33.956;151.076;2022-11-15T04:46:12;2.75;;;0.93;;
48647;SDS011;34437;-33.956;151.076;2022-11-15T04:48:34;3.50;;;0.77;;
48647;SDS011;34437;-33.956;151.076;2022-11-15T04:50:57;1.58;;;0.75;;
48647;SDS011;34437;-33.956;151.076;2022-11-15T04:53:20;1.30;;;0.60;;
48647;SDS011;34437;-33.956;151.076;2022-11-15T04:55:45;2.42;;;0.68;;
48647;SDS011;34437;-33.956;151.076;2022-11-15T04:58:08;2.67;;;0.80;;
48647;SDS011;34437;-33.956;151.076;2022-11-15T05:00:31;2.47;;;0.93;;
48647;SDS011;34437;-33.956;151.076;2022-11-15T05:02:54;1.90;;;0.70;;
48647;SDS011;34437;-33.956;151.076;2022-11-15T05:05:35;2.20;;;0.55;;
48647;SDS011;34437;-33.956;151.076;2022-11-15T05:07:58;1.52;;;0.70;;
48647;SDS011;34437;-33.956;151.076;2022-11-15T05:10:20;5.72;;;0.80;;
48647;SDS011;34437;-33.956;151.076;2022-11-15T05:12:43;1.67;;;0.52;;
48647;SDS011;34437;-33.956;151.076;2022-11-15T05:15:05;1.95;;;0.60;;
48647;SDS011;34437;-33.956;151.076;2022-11-15T05:17:28;1.75;;;0.82;;
48647;SDS011;34437;-33.956;151.076;2022-11-15T05:19:51;7.60;;;0.75;;
48647;SDS011;34437;-33.956;151.076;2022-11-15T05:22:13;4.03;;;1.00;;
48647;SDS011;34437;-33.956;151.076;2022-11-15T05:24:36;2.03;;;0.85;;
48647;SDS011;34437;-33.956;151.076;2022-11-15T05:26:58;2.78;;;0.88;;
48647;SDS011;34437;-33.956;151.076;2022-11-15T05:29:21;4.68;;;0.80;;
48647;SDS011;34437;-33.956;151.076;2022-11-15T05:31:44;1.50;;;0.57;;
48647;SDS011;34437;-33.956;151.076;2022-11-15T05:34:06;1.63;;;0.65;;
48647;SDS011;34437;-33.956;151.076;2022-11-15T05:36:34;3.55;;;0.73;;
48647;SDS011;34437;-33.956;151.076;2022-11-15T05:39:04;4.15;;;1.13;;
48647;SDS011;34437;-33.956;151.076;2022-11-15T05:41:34;1.75;;;0.70;;
48647;SDS011;34437;-33.956;151.076;2022-11-15T05:44:05;2.60;;;0.70;;
48647;SDS011;34437;-33.956;151.076;2022-11-15T05:46:30;2.08;;;0.80;;
48647;SDS011;34437;-33.956;151.076;2022-11-15T05:48:53;1.77;;;0.88;;
48647;SDS011;34437;-33.956;151.076;2022-11-15T05:51:17;2.28;;;0.70;;
48647;SDS011;34437;-33.956;151.076;2022-11-15T05:53:44;1.65;;;0.90;;
48647;SDS011;34437;-33.956;151.076;2022-11-15T05:56:08;2.08;;;0.95;;
48647;SDS011;34437;-33.956;151.076;2022-11-15T05:58:31;2.58;;;0.95;;
48647;SDS011;34437;-33.956;151.076;2022-11-15T06:00:54;1.88;;;0.80;;
48647;SDS011;34437;-33.956;151.076;2022-11-15T06:03:17;2.00;;;0.60;;
48647;SDS011;34437;-33.956;151.076;2022-11-15T06:05:39;3.42;;;0.82;;
48647;SDS011;34437;-33.956;151.076;2022-11-15T06:08:02;1.53;;;0.63;;
48647;SDS011;34437;-33.956;151.076;2022-11-15T06:10:25;1.17;;;0.70;;
48647;SDS011;34437;-33.956;151.076;2022-11-15T06:13:00;2.75;;;0.80;;
48647;SDS011;34437;-33.956;151.076;2022-11-15T06:15:23;2.33;;;1.10;;
48647;SDS011;34437;-33.956;151.076;2022-11-15T06:17:46;3.63;;;1.20;;
48647;SDS011;34437;-33.956;151.076;2022-11-15T06:20:09;4.30;;;1.13;;
48647;SDS011;34437;-33.956;151.076;2022-11-15T06:22:32;1.92;;;1.10;;
48647;SDS011;34437;-33.956;151.076;2022-11-15T06:24:54;2.78;;;1.20;;
48647;SDS011;34437;-33.956;151.076;2022-11-15T06:27:17;3.67;;;1.42;;
48647;SDS011;34437;-33.956;151.076;2022-11-15T06:29:39;5.72;;;2.40;;
48647;SDS011;34437;-33.956;151.076;2022-11-15T06:32:02;6.18;;;2.60;;
48647;SDS011;34437;-33.956;151.076;2022-11-15T06:34:25;6.00;;;2.60;;
48647;SDS011;34437;-33.956;151.076;2022-11-15T06:36:47;8.48;;;2.88;;
48647;SDS011;34437;-33.956;151.076;2022-11-15T06:39:10;7.07;;;2.92;;
48647;SDS011;34437;-33.956;151.076;2022-11-15T06:41:35;5.25;;;2.80;;
48647;SDS011;34437;-33.956;151.076;2022-11-15T06:43:58;6.18;;;2.70;;
48647;SDS011;34437;-33.956;151.076;2022-11-15T06:46:21;4.47;;;2.20;;
48647;SDS011;34437;-33.956;151.076;2022-11-15T06:48:43;4.50;;;2.17;;
48647;SDS011;34437;-33.956;151.076;2022-11-15T06:51:06;7.95;;;2.65;;
48647;SDS011;34437;-33.956;151.076;2022-11-15T06:53:29;5.80;;;2.15;;
48647;SDS011;34437;-33.956;151.076;2022-11-15T06:55:52;6.47;;;2.28;;
48647;SDS011;34437;-33.956;151.076;2022-11-15T06:58:15;6.63;;;2.45;;
48647;SDS011;34437;-33.956;151.076;2022-11-15T07:00:37;6.00;;;2.40;;
48647;SDS011;34437;-33.956;151.076;2022-11-15T07:03:00;6.97;;;2.08;;
48647;SDS011;34437;-33.956;151.076;2022-11-15T07:05:23;6.07;;;2.35;;
48647;SDS011;34437;-33.956;151.076;2022-11-15T07:07:50;4.97;;;1.55;;
48647;SDS011;34437;-33.956;151.076;2022-11-15T07:10:14;7.18;;;2.05;;
48647;SDS011;34437;-33.956;151.076;2022-11-15T07:12:36;3.92;;;1.85;;
48647;SDS011;34437;-33.956;151.076;2022-11-15T07:14:59;5.72;;;1.95;;
48647;SDS011;34437;-33.956;151.076;2022-11-15T07:17:21;7.70;;;2.60;;
48647;SDS011;34437;-33.956;151.076;2022-11-15T07:19:44;5.65;;;2.22;;
48647;SDS011;34437;-33.956;151.076;2022-11-15T07:22:07;5.28;;;2.10;;
48647;SDS011;34437;-33.956;151.076;2022-11-15T07:24:29;5.40;;;1.80;;
48647;SDS011;34437;-33.956;151.076;2022-11-15T07:26:52;5.50;;;1.90;;
48647;SDS011;34437;-33.956;151.076;2022-11-15T07:29:14;5.10;;;1.83;;
48647;SDS011;34437;-33.956;151.076;2022-11-15T07:31:37;6.72;;;2.05;;
48647;SDS011;34437;-33.956;151.076;2022-11-15T07:34:00;4.38;;;1.73;;
48647;SDS011;34437;-33.956;151.076;2022-11-15T07:36:22;7.78;;;2.42;;
48647;SDS011;34437;-33.956;151.076;2022-11-15T07:38:47;4.97;;;1.75;;
48647;SDS011;34437;-33.956;151.076;2022-11-15T07:41:10;4.15;;;1.55;;
48647;SDS011;34437;-33.956;151.076;2022-11-15T07:43:32;7.43;;;2.10;;
48647;SDS011;34437;-33.956;151.076;2022-11-15T07:45:55;7.13;;;2.13;;
48647;SDS011;34437;-33.956;151.076;2022-11-15T07:48:18;4.05;;;1.60;;
48647;SDS011;34437;-33.956;151.076;2022-11-15T07:50:41;7.40;;;1.88;;
48647;SDS011;34437;-33.956;151.076;2022-11-15T07:53:04;6.72;;;2.22;;
48647;SDS011;34437;-33.956;151.076;2022-11-15T07:55:27;8.25;;;2.17;;
48647;SDS011;34437;-33.956;151.076;2022-11-15T07:57:50;5.95;;;1.85;;
48647;SDS011;34437;-33.956;151.076;2022-11-15T08:00:13;4.47;;;1.60;;
48647;SDS011;34437;-33.956;151.076;2022-11-15T08:02:36;4.47;;;1.63;;
48647;SDS011;34437;-33.956;151.076;2022-11-15T08:04:58;3.80;;;1.50;;
48647;SDS011;34437;-33.956;151.076;2022-11-15T08:07:21;3.45;;;1.27;;
48647;SDS011;34437;-33.956;151.076;2022-11-15T08:09:44;5.10;;;1.80;;
48647;SDS011;34437;-33.956;151.076;2022-11-15T08:21:17;4.00;;;1.40;;
48647;SDS011;34437;-33.956;151.076;2022-11-15T08:23:41;4.50;;;1.92;;
48647;SDS011;34437;-33.956;151.076;2022-11-15T08:26:03;5.35;;;1.55;;
48647;SDS011;34437;-33.956;151.076;2022-11-15T08:28:26;4.55;;;1.80;;
48647;SDS011;34437;-33.956;151.076;2022-11-15T08:30:49;4.93;;;2.22;;
48647;SDS011;34437;-33.956;151.076;2022-11-15T08:33:12;2.55;;;1.27;;
48647;SDS011;34437;-33.956;151.076;2022-11-15T08:35:35;9.35;;;1.92;;
48647;SDS011;34437;-33.956;151.076;2022-11-15T08:37:58;3.90;;;1.30;;
48647;SDS011;34437;-33.956;151.076;2022-11-15T08:40:20;3.83;;;1.42;;
48647;SDS011;34437;-33.956;151.076;2022-11-15T08:42:44;3.00;;;1.40;;
48647;SDS011;34437;-33.956;151.076;2022-11-15T08:45:08;3.50;;;1.50;;
48647;SDS011;34437;-33.956;151.076;2022-11-15T08:47:31;3.45;;;1.70;;
48647;SDS011;34437;-33.956;151.076;2022-11-15T08:49:54;3.55;;;1.33;;
48647;SDS011;34437;-33.956;151.076;2022-11-15T08:52:16;2.80;;;1.20;;
48647;SDS011;34437;-33.956;151.076;2022-11-15T08:54:39;3.83;;;1.40;;
48647;SDS011;34437;-33.956;151.076;2022-11-15T08:57:02;3.00;;;1.70;;
48647;SDS011;34437;-33.956;151.076;2022-11-15T08:59:24;4.10;;;1.80;;
48647;SDS011;34437;-33.956;151.076;2022-11-15T09:01:47;4.93;;;1.60;;
48647;SDS011;34437;-33.956;151.076;2022-11-15T09:04:09;4.15;;;1.42;;
48647;SDS011;34437;-33.956;151.076;2022-11-15T09:06:32;4.47;;;1.50;;
48647;SDS011;34437;-33.956;151.076;2022-11-15T09:08:54;4.20;;;1.38;;
48647;SDS011;34437;-33.956;151.076;2022-11-15T09:11:17;3.97;;;1.50;;
48647;SDS011;34437;-33.956;151.076;2022-11-15T09:13:42;4.15;;;1.40;;
48647;SDS011;34437;-33.956;151.076;2022-11-15T09:16:05;3.10;;;1.33;;
48647;SDS011;34437;-33.956;151.076;2022-11-15T09:18:28;4.65;;;1.45;;
48647;SDS011;34437;-33.956;151.076;2022-11-15T09:20:50;3.50;;;1.58;;
48647;SDS011;34437;-33.956;151.076;2022-11-15T09:23:16;4.90;;;1.60;;
48647;SDS011;34437;-33.956;151.076;2022-11-15T09:25:38;3.65;;;1.20;;
48647;SDS011;34437;-33.956;151.076;2022-11-15T09:28:05;4.25;;;1.23;;
48647;SDS011;34437;-33.956;151.076;2022-11-15T09:30:28;4.03;;;1.50;;
48647;SDS011;34437;-33.956;151.076;2022-11-15T09:32:51;3.08;;;1.30;;
48647;SDS011;34437;-33.956;151.076;2022-11-15T09:35:13;3.50;;;1.40;;
48647;SDS011;34437;-33.956;151.076;2022-11-15T09:37:36;3.42;;;1.20;;
48647;SDS011;34437;-33.956;151.076;2022-11-15T09:39:58;3.47;;;1.30;;
48647;SDS011;34437;-33.956;151.076;2022-11-15T09:50:00;3.88;;;1.40;;
48647;SDS011;34437;-33.956;151.076;2022-11-15T09:52:30;3.75;;;1.42;;
48647;SDS011;34437;-33.956;151.076;2022-11-15T09:54:52;3.55;;;1.30;;
48647;SDS011;34437;-33.956;151.076;2022-11-15T09:57:17;3.83;;;1.40;;
48647;SDS011;34437;-33.956;151.076;2022-11-15T10:05:24;3.30;;;1.30;;
48647;SDS011;34437;-33.956;151.076;2022-11-15T10:10:34;3.55;;;1.38;;
48647;SDS011;34437;-33.956;151.076;2022-11-15T10:13:11;4.75;;;1.58;;
48647;SDS011;34437;-33.956;151.076;2022-11-15T10:15:41;10.05;;;1.70;;
48647;SDS011;34437;-33.956;151.076;2022-11-15T10:20:49;3.53;;;1.30;;
48647;SDS011;34437;-33.956;151.076;2022-11-15T10:23:18;4.97;;;1.60;;
48647;SDS011;34437;-33.956;151.076;2022-11-15T10:25:42;5.40;;;1.30;;
48647;SDS011;34437;-33.956;151.076;2022-11-15T10:28:27;4.55;;;1.50;;
48647;SDS011;34437;-33.956;151.076;2022-11-15T10:30:52;2.20;;;1.08;;
48647;SDS011;34437;-33.956;151.076;2022-11-15T10:36:27;7.13;;;1.65;;
48647;SDS011;34437;-33.956;151.076;2022-11-15T10:41:12;6.70;;;1.17;;
48647;SDS011;34437;-33.956;151.076;2022-11-15T10:43:35;6.20;;;1.33;;
48647;SDS011;34437;-33.956;151.076;2022-11-15T10:45:57;8.85;;;1.75;;
48647;SDS011;34437;-33.956;151.076;2022-11-15T10:48:42;12.48;;;1.85;;
48647;SDS011;34437;-33.956;151.076;2022-11-15T10:51:06;6.90;;;1.67;;
48647;SDS011;34437;-33.956;151.076;2022-11-15T10:53:43;4.97;;;1.50;;
48647;SDS011;34437;-33.956;151.076;2022-11-15T10:56:08;2.83;;;1.42;;
48647;SDS011;34437;-33.956;151.076;2022-11-15T10:58:43;6.20;;;1.80;;
48647;SDS011;34437;-33.956;151.076;2022-11-15T11:01:15;3.80;;;1.45;;
48647;SDS011;34437;-33.956;151.076;2022-11-15T11:03:40;9.30;;;1.40;;
48647;SDS011;34437;-33.956;151.076;2022-11-15T11:06:14;6.63;;;1.45;;
48647;SDS011;34437;-33.956;151.076;2022-11-15T11:08:38;6.30;;;1.83;;
48647;SDS011;34437;-33.956;151.076;2022-11-15T11:11:02;6.60;;;1.60;;
48647;SDS011;34437;-33.956;151.076;2022-11-15T11:18:26;4.88;;;1.23;;
48647;SDS011;34437;-33.956;151.076;2022-11-15T11:20:57;2.90;;;1.20;;
48647;SDS011;34437;-33.956;151.076;2022-11-15T11:26:22;2.10;;;0.90;;
48647;SDS011;34437;-33.956;151.076;2022-11-15T11:29:01;8.50;;;1.37;;
48647;SDS011;34437;-33.956;151.076;2022-11-15T11:36:41;1.50;;;0.70;;
48647;SDS011;34437;-33.956;151.076;2022-11-15T11:39:27;3.83;;;1.00;;
48647;SDS011;34437;-33.956;151.076;2022-11-15T11:42:16;6.18;;;1.10;;
48647;SDS011;34437;-33.956;151.076;2022-11-15T11:47:24;4.13;;;0.80;;
48647;SDS011;34437;-33.956;151.076;2022-11-15T11:50:03;3.25;;;0.80;;
48647;SDS011;34437;-33.956;151.076;2022-11-15T11:52:56;3.78;;;1.30;;
48647;SDS011;34437;-33.956;151.076;2022-11-15T11:55:32;2.60;;;0.88;;
48647;SDS011;34437;-33.956;151.076;2022-11-15T12:03:55;3.05;;;0.80;;
48647;SDS011;34437;-33.956;151.076;2022-11-15T12:14:45;9.30;;;0.68;;
48647;SDS011;34437;-33.956;151.076;2022-11-15T12:17:19;1.67;;;0.70;;
48647;SDS011;34437;-33.956;151.076;2022-11-15T12:19:47;5.20;;;1.10;;
48647;SDS011;34437;-33.956;151.076;2022-11-15T12:24:43;4.22;;;1.00;;
48647;SDS011;34437;-33.956;151.076;2022-11-15T12:27:20;3.78;;;0.90;;
48647;SDS011;34437;-33.956;151.076;2022-11-15T12:29:51;2.33;;;0.65;;
48647;SDS011;34437;-33.956;151.076;2022-11-15T12:32:37;1.23;;;0.55;;
48647;SDS011;34437;-33.956;151.076;2022-11-15T12:35:03;1.83;;;0.90;;
48647;SDS011;34437;-33.956;151.076;2022-11-15T12:42:44;1.95;;;0.60;;
48647;SDS011;34437;-33.956;151.076;2022-11-15T12:45:37;2.53;;;0.77;;
48647;SDS011;34437;-33.956;151.076;2022-11-15T12:55:46;1.55;;;0.40;;
48647;SDS011;34437;-33.956;151.076;2022-11-15T12:58:43;1.80;;;0.73;;
48647;SDS011;34437;-33.956;151.076;2022-11-15T13:01:12;2.33;;;0.70;;
48647;SDS011;34437;-33.956;151.076;2022-11-15T13:06:51;2.10;;;0.63;;
48647;SDS011;34437;-33.956;151.076;2022-11-15T13:11:57;1.95;;;1.00;;
48647;SDS011;34437;-33.956;151.076;2022-11-15T13:17:02;1.58;;;0.70;;
48647;SDS011;34437;-33.956;151.076;2022-11-15T13:19:38;2.33;;;0.40;;
48647;SDS011;34437;-33.956;151.076;2022-11-15T13:22:04;0.50;;;0.43;;
48647;SDS011;34437;-33.956;151.076;2022-11-15T13:24:49;0.65;;;0.30;;
48647;SDS011;34437;-33.956;151.076;2022-11-15T13:27:15;3.05;;;0.70;;
48647;SDS011;34437;-33.956;151.076;2022-11-15T13:29:42;1.85;;;0.50;;
48647;SDS011;34437;-33.956;151.076;2022-11-15T13:32:09;2.38;;;0.60;;
48647;SDS011;34437;-33.956;151.076;2022-11-15T13:34:37;1.38;;;0.40;;
48647;SDS011;34437;-33.956;151.076;2022-11-15T13:37:01;1.13;;;0.45;;
48647;SDS011;34437;-33.956;151.076;2022-11-15T13:41:54;1.17;;;0.50;;
48647;SDS011;34437;-33.956;151.076;2022-11-15T13:44:21;2.10;;;0.70;;
48647;SDS011;34437;-33.956;151.076;2022-11-15T13:46:46;0.65;;;0.50;;
48647;SDS011;34437;-33.956;151.076;2022-11-15T13:49:09;0.93;;;0.50;;
48647;SDS011;34437;-33.956;151.076;2022-11-15T13:51:33;3.67;;;0.60;;
48647;SDS011;34437;-33.956;151.076;2022-11-15T13:54:15;3.08;;;0.68;;
48647;SDS011;34437;-33.956;151.076;2022-11-15T13:56:54;1.30;;;0.43;;
48647;SDS011;34437;-33.956;151.076;2022-11-15T14:01:48;0.55;;;0.55;;
48647;SDS011;34437;-33.956;151.076;2022-11-15T14:04:13;1.02;;;0.50;;
48647;SDS011;34437;-33.956;151.076;2022-11-15T14:06:49;1.17;;;0.52;;
48647;SDS011;34437;-33.956;151.076;2022-11-15T14:11:56;2.78;;;0.60;;
48647;SDS011;34437;-33.956;151.076;2022-11-15T14:14:22;3.45;;;0.60;;
48647;SDS011;34437;-33.956;151.076;2022-11-15T14:16:47;4.30;;;0.50;;
48647;SDS011;34437;-33.956;151.076;2022-11-15T14:19:12;0.98;;;0.55;;
48647;SDS011;34437;-33.956;151.076;2022-11-15T14:24:44;2.17;;;0.50;;
48647;SDS011;34437;-33.956;151.076;2022-11-15T14:29:42;1.17;;;0.40;;
48647;SDS011;34437;-33.956;151.076;2022-11-15T14:34:43;0.95;;;0.63;;
48647;SDS011;34437;-33.956;151.076;2022-11-15T14:37:11;0.80;;;0.40;;
48647;SDS011;34437;-33.956;151.076;2022-11-15T14:39:42;0.98;;;0.50;;
48647;SDS011;34437;-33.956;151.076;2022-11-15T14:42:05;2.38;;;0.50;;
48647;SDS011;34437;-33.956;151.076;2022-11-15T14:44:30;1.00;;;0.60;;
48647;SDS011;34437;-33.956;151.076;2022-11-15T14:46:52;0.80;;;0.50;;
48647;SDS011;34437;-33.956;151.076;2022-11-15T14:49:15;1.45;;;0.77;;
48647;SDS011;34437;-33.956;151.076;2022-11-15T14:51:38;1.23;;;0.50;;
48647;SDS011;34437;-33.956;151.076;2022-11-15T14:54:00;2.05;;;0.60;;
48647;SDS011;34437;-33.956;151.076;2022-11-15T14:56:23;0.88;;;0.45;;
48647;SDS011;34437;-33.956;151.076;2022-11-15T14:58:45;2.22;;;0.75;;
48647;SDS011;34437;-33.956;151.076;2022-11-15T15:03:35;1.33;;;0.82;;
48647;SDS011;34437;-33.956;151.076;2022-11-15T15:05:58;1.75;;;0.50;;
48647;SDS011;34437;-33.956;151.076;2022-11-15T15:08:20;1.55;;;0.77;;
48647;SDS011;34437;-33.956;151.076;2022-11-15T15:10:44;5.22;;;1.02;;
48647;SDS011;34437;-33.956;151.076;2022-11-15T15:13:25;4.47;;;0.77;;
48647;SDS011;34437;-33.956;151.076;2022-11-15T15:15:50;2.42;;;0.68;;
48647;SDS011;34437;-33.956;151.076;2022-11-15T15:18:13;1.25;;;0.63;;
48647;SDS011;34437;-33.956;151.076;2022-11-15T15:20:36;1.95;;;0.80;;
48647;SDS011;34437;-33.956;151.076;2022-11-15T15:23:01;2.25;;;0.60;;
48647;SDS011;34437;-33.956;151.076;2022-11-15T15:25:33;2.45;;;0.70;;
48647;SDS011;34437;-33.956;151.076;2022-11-15T15:27:56;0.80;;;0.57;;
48647;SDS011;34437;-33.956;151.076;2022-11-15T15:30:19;1.83;;;0.50;;
48647;SDS011;34437;-33.956;151.076;2022-11-15T15:32:42;0.98;;;0.40;;
48647;SDS011;34437;-33.956;151.076;2022-11-15T15:35:05;0.95;;;0.50;;
48647;SDS011;34437;-33.956;151.076;2022-11-15T15:37:31;1.40;;;0.52;;
48647;SDS011;34437;-33.956;151.076;2022-11-15T15:39:55;1.83;;;0.70;;
48647;SDS011;34437;-33.956;151.076;2022-11-15T15:42:18;1.70;;;0.63;;
48647;SDS011;34437;-33.956;151.076;2022-11-15T15:44:41;2.00;;;0.67;;
48647;SDS011;34437;-33.956;151.076;2022-11-15T15:47:09;3.97;;;0.77;;
48647;SDS011;34437;-33.956;151.076;2022-11-15T15:49:33;2.30;;;0.57;;
48647;SDS011;34437;-33.956;151.076;2022-11-15T15:51:56;3.20;;;0.63;;
48647;SDS011;34437;-33.956;151.076;2022-11-15T15:54:18;2.63;;;0.75;;
48647;SDS011;34437;-33.956;151.076;2022-11-15T15:56:41;2.72;;;0.70;;
48647;SDS011;34437;-33.956;151.076;2022-11-15T15:59:03;1.08;;;0.40;;
48647;SDS011;34437;-33.956;151.076;2022-11-15T16:01:26;4.10;;;0.80;;
48647;SDS011;34437;-33.956;151.076;2022-11-15T16:03:48;2.10;;;0.50;;
48647;SDS011;34437;-33.956;151.076;2022-11-15T16:06:29;2.90;;;0.50;;
48647;SDS011;34437;-33.956;151.076;2022-11-15T16:08:59;2.53;;;0.70;;
48647;SDS011;34437;-33.956;151.076;2022-11-15T16:11:22;1.17;;;0.60;;
48647;SDS011;34437;-33.956;151.076;2022-11-15T16:13:45;1.85;;;0.65;;